Time;durP1;ratioP1;P1;durP2;ratioP2;P2;SDS_P1;SDS_P2;PMS_P1;PMS_P2;Temp;Humidity;BMP_temperature;BMP_pressure;BME280_temperature;BME280_humidity;BME280_pressure;Samples;Min_cycle;Max_cycle;Signal;HPM_P1;HPM_P2
2023/08/23 00:00:41;;;;;;;14.18;8.40;;;;;;;28.36;56.42;98202.13;4427354;32;20082;-80
2023/08/23 00:03:08;;;;;;;16.42;8.52;;;;;;;28.67;55.26;98202.09;4426803;32;20250;-80
2023/08/23 00:05:35;;;;;;;16.20;8.73;;;;;;;28.79;54.62;98195.34;4427404;32;20437;-80
2023/08/23 00:08:02;;;;;;;13.35;8.15;;;;;;;28.70;54.90;98199.06;4427027;32;20584;-80
2023/08/23 00:10:29;;;;;;;14.80;8.00;;;;;;;28.91;54.25;98198.44;4426761;32;20424;-80
2023/08/23 00:12:56;;;;;;;14.43;8.50;;;;;;;28.72;54.56;98194.44;4427122;32;20121;-80
2023/08/23 00:15:23;;;;;;;14.73;8.48;;;;;;;28.64;54.75;98191.84;4427131;32;20427;-80
2023/08/23 00:17:50;;;;;;;13.15;8.50;;;;;;;28.46;55.53;98192.94;4426788;32;20553;-80
2023/08/23 00:20:17;;;;;;;13.32;8.38;;;;;;;28.54;55.36;98186.75;4426984;32;20089;-80
2023/08/23 00:22:44;;;;;;;13.68;8.63;;;;;;;28.55;55.17;98190.22;4427174;32;20109;-80
2023/08/23 00:25:11;;;;;;;14.85;8.15;;;;;;;28.41;55.57;98184.69;4426731;32;20077;-80
2023/08/23 00:27:38;;;;;;;15.38;8.43;;;;;;;28.27;56.14;98185.38;4427102;32;20101;-80
2023/08/23 00:30:05;;;;;;;17.98;8.73;;;;;;;28.15;56.45;98178.81;4427181;32;20097;-80
2023/08/23 00:32:32;;;;;;;14.13;8.90;;;;;;;28.12;56.45;98179.16;4426768;32;20085;-80
2023/08/23 00:35:00;;;;;;;15.75;8.23;;;;;;;28.06;56.73;98185.16;4427102;32;20086;-80
2023/08/23 00:37:26;;;;;;;15.30;8.43;;;;;;;27.94;57.13;98182.06;4426487;32;20106;-80
2023/08/23 00:39:53;;;;;;;17.73;8.93;;;;;;;28.07;56.48;98179.66;4426855;32;20160;-80
2023/08/23 00:42:20;;;;;;;14.27;9.50;;;;;;;27.97;57.04;98179.06;4427196;32;20156;-80
2023/08/23 00:44:47;;;;;;;14.25;8.90;;;;;;;28.38;55.75;98178.87;4426959;32;20089;-80
2023/08/23 00:47:14;;;;;;;13.30;8.05;;;;;;;28.22;56.35;98171.81;4427373;32;20149;-80
2023/08/23 00:49:41;;;;;;;15.88;8.73;;;;;;;28.37;55.86;98174.56;4427183;32;20107;-80
2023/08/23 00:52:08;;;;;;;14.38;8.60;;;;;;;28.25;56.32;98176.75;4426572;32;20388;-80
2023/08/23 00:54:35;;;;;;;15.88;8.68;;;;;;;28.39;56.00;98175.22;4426821;32;20159;-80
2023/08/23 00:57:02;;;;;;;16.00;8.82;;;;;;;28.14;56.82;98175.31;4426674;32;20112;-80
2023/08/23 00:59:31;;;;;;;14.48;9.13;;;;;;;28.09;57.13;98167.09;4412837;32;20124;-80
2023/08/23 01:01:58;;;;;;;16.65;9.10;;;;;;;28.10;56.72;98163.44;4412991;32;20073;-80
2023/08/23 01:04:25;;;;;;;16.67;8.90;;;;;;;28.69;54.90;98171.69;4426834;32;20093;-80
2023/08/23 01:07:05;;;;;;;15.18;8.88;;;;;;;28.30;56.14;98165.69;4426144;32;20485;-80
2023/08/23 01:09:43;;;;;;;16.27;9.30;;;;;;;28.88;54.42;98167.78;4426815;32;20161;-80
2023/08/23 01:12:21;;;;;;;15.13;8.90;;;;;;;28.84;54.46;98161.16;4413065;32;20086;-80
2023/08/23 01:15:02;;;;;;;15.82;8.98;;;;;;;28.96;54.08;98158.91;4413254;32;20144;-80
2023/08/23 01:17:31;;;;;;;15.90;8.57;;;;;;;28.87;54.14;98165.28;4412961;32;20800;-80
2023/08/23 01:19:59;;;;;;;15.20;8.75;;;;;;;28.35;55.85;98164.13;4426365;32;20152;-80
2023/08/23 01:22:30;;;;;;;14.20;9.05;;;;;;;28.43;55.75;98157.97;4412975;32;20480;-81
2023/08/23 01:24:57;;;;;;;13.70;9.25;;;;;;;28.61;55.09;98163.00;4426829;32;20465;-80
2023/08/23 01:27:24;;;;;;;16.35;8.77;;;;;;;28.71;54.61;98163.56;4425934;32;20089;-80
2023/08/23 01:29:51;;;;;;;14.90;9.55;;;;;;;28.60;55.01;98158.66;4426762;32;20108;-80
2023/08/23 01:32:30;;;;;;;14.80;9.20;;;;;;;29.09;53.33;98165.25;4426498;32;20156;-80
2023/08/23 01:35:24;;;;;;;15.63;9.25;;;;;;;28.87;54.01;98158.13;4426215;32;20113;-80
2023/08/23 01:37:52;;;;;;;15.02;8.70;;;;;;;28.60;54.90;98151.53;4411659;32;20120;-80
2023/08/23 01:40:20;;;;;;;14.63;8.57;;;;;;;28.61;54.62;98157.69;4411967;32;20152;-80
2023/08/23 01:42:47;;;;;;;15.25;9.13;;;;;;;28.57;54.83;98140.44;4412563;32;20136;-80
2023/08/23 01:45:14;;;;;;;17.27;9.32;;;;;;;28.66;54.73;98157.97;4426680;32;20157;-80
2023/08/23 01:47:41;;;;;;;15.52;8.90;;;;;;;28.20;56.22;98160.56;4426096;32;20433;-80
2023/08/23 01:50:09;;;;;;;16.05;9.15;;;;;;;28.24;56.16;98152.06;4426599;32;20085;-80
2023/08/23 01:52:36;;;;;;;15.88;9.15;;;;;;;27.89;57.17;98157.91;4426206;32;20223;-80
2023/08/23 01:55:03;;;;;;;12.82;8.60;;;;;;;27.74;58.01;98149.81;4425985;32;20137;-80
2023/08/23 01:57:30;;;;;;;15.93;9.93;;;;;;;27.70;58.16;98153.00;4425913;32;20452;-80
2023/08/23 01:59:57;;;;;;;18.75;9.57;;;;;;;27.60;58.71;98150.50;4412245;32;20107;-80
2023/08/23 02:02:24;;;;;;;15.77;10.00;;;;;;;27.35;59.55;98145.28;4425842;32;20153;-80
2023/08/23 02:04:51;;;;;;;15.15;8.70;;;;;;;27.66;58.37;98148.03;4426065;32;20094;-80
2023/08/23 02:07:18;;;;;;;15.23;9.82;;;;;;;27.72;58.28;98140.38;4426048;32;20109;-80
2023/08/23 02:09:45;;;;;;;16.80;9.10;;;;;;;28.21;56.69;98146.28;4425810;32;20089;-80
2023/08/23 02:12:12;;;;;;;16.70;9.48;;;;;;;27.96;57.39;98142.91;4426265;32;20108;-80
2023/08/23 02:14:39;;;;;;;14.43;8.75;;;;;;;28.21;56.53;98135.69;4400213;32;20133;-80
2023/08/23 02:17:06;;;;;;;14.38;8.73;;;;;;;28.04;57.10;98144.72;4426076;32;20129;-80
2023/08/23 02:19:33;;;;;;;16.35;9.05;;;;;;;27.98;57.31;98135.66;4426474;32;20094;-80
2023/08/23 02:22:00;;;;;;;14.07;8.95;;;;;;;27.90;57.66;98138.31;4426073;32;20444;-80
2023/08/23 02:24:27;;;;;;;16.20;9.30;;;;;;;28.07;57.14;98136.41;4426077;32;20137;-80
2023/08/23 02:26:54;;;;;;;15.38;9.30;;;;;;;28.46;55.85;98137.19;4426562;32;20107;-80
2023/08/23 02:29:21;;;;;;;13.90;9.25;;;;;;;28.60;55.37;98135.59;4426189;32;20108;-80
2023/08/23 02:31:48;;;;;;;13.88;8.85;;;;;;;28.09;56.71;98132.59;4426315;32;20500;-80
2023/08/23 02:34:15;;;;;;;14.15;9.30;;;;;;;27.92;57.67;98131.03;4426121;32;20153;-80
2023/08/23 02:36:41;;;;;;;16.58;9.57;;;;;;;27.98;57.27;98121.56;4425887;32;20097;-80
2023/08/23 02:39:09;;;;;;;15.48;9.27;;;;;;;27.88;57.95;98127.06;4426169;32;20148;-80
2023/08/23 02:41:36;;;;;;;14.48;9.57;;;;;;;27.81;58.18;98124.28;4426432;32;20086;-80
2023/08/23 02:44:03;;;;;;;14.27;9.77;;;;;;;27.78;58.33;98123.81;4425792;32;20755;-80
2023/08/23 02:46:30;;;;;;;13.88;8.80;;;;;;;27.85;57.91;98120.28;4426235;32;20117;-80
2023/08/23 02:48:57;;;;;;;15.07;9.55;;;;;;;27.86;58.15;98129.03;4426171;32;20116;-80
2023/08/23 02:51:23;;;;;;;15.00;9.45;;;;;;;27.99;57.71;98117.91;4424352;32;20050;-80
2023/08/23 02:53:50;;;;;;;14.73;9.57;;;;;;;28.11;57.30;98119.16;4425820;32;20101;-80
2023/08/23 02:56:17;;;;;;;17.25;10.30;;;;;;;27.16;60.33;98121.81;4426016;32;20157;-80
2023/08/23 02:58:44;;;;;;;15.02;9.25;;;;;;;27.82;58.55;98123.28;4425563;32;20385;-80
2023/08/23 03:01:11;;;;;;;16.10;9.38;;;;;;;28.16;57.13;98119.44;4425792;32;20428;-80
2023/08/23 03:03:38;;;;;;;15.55;9.77;;;;;;;28.35;56.60;98123.50;4425957;32;20086;-80
2023/08/23 03:06:06;;;;;;;17.08;9.98;;;;;;;27.93;57.73;98120.25;4425442;32;20105;-80
2023/08/23 03:08:33;;;;;;;15.02;9.90;;;;;;;28.43;56.32;98116.31;4426139;32;20108;-80
2023/08/23 03:11:06;;;;;;;21.00;9.93;;;;;;;27.55;58.90;98113.94;4425934;32;20481;-80
2023/08/23 03:13:34;;;;;;;15.63;10.18;;;;;;;27.87;58.41;98117.47;4425457;32;20120;-80
2023/08/23 03:16:01;;;;;;;16.60;10.13;;;;;;;27.46;59.71;98114.12;4425832;32;20244;-80
2023/08/23 03:18:28;;;;;;;15.50;9.88;;;;;;;27.81;58.50;98111.03;4425829;32;20089;-80
2023/08/23 03:20:55;;;;;;;16.33;9.90;;;;;;;27.98;57.92;98100.34;4425650;32;20163;-80
2023/08/23 03:23:23;;;;;;;17.55;9.98;;;;;;;27.89;58.79;98103.03;4426149;32;20098;-80
2023/08/23 03:25:50;;;;;;;15.05;9.80;;;;;;;27.81;59.04;98111.03;4425838;32;20102;-80
2023/08/23 03:28:17;;;;;;;17.25;10.20;;;;;;;27.81;59.04;98096.94;4425808;32;20436;-80
2023/08/23 03:30:44;;;;;;;15.93;9.80;;;;;;;27.55;60.02;98099.84;4425982;32;20077;-80
2023/08/23 03:33:11;;;;;;;15.70;9.38;;;;;;;28.27;57.45;98100.47;4425596;32;20085;-80
2023/08/23 03:35:38;;;;;;;17.62;9.68;;;;;;;28.32;57.21;98103.47;4425930;32;20149;-80
2023/08/23 03:38:05;;;;;;;16.05;9.70;;;;;;;28.11;57.85;98098.75;4425747;32;20163;-80
2023/08/23 03:40:37;;;;;;;15.85;9.57;;;;;;;27.47;60.38;98102.53;4425290;32;20108;-80
2023/08/23 03:43:04;;;;;;;14.55;9.15;;;;;;;27.17;61.56;98104.91;4412260;32;20503;-80
2023/08/23 03:45:31;;;;;;;13.75;8.75;;;;;;;27.37;61.07;98098.25;4425550;32;20101;-80
2023/08/23 03:47:58;;;;;;;14.15;9.18;;;;;;;27.59;60.13;98096.66;4425067;32;20089;-80
2023/08/23 03:50:25;;;;;;;13.95;9.50;;;;;;;27.78;59.49;98092.00;4425688;32;20081;-80
2023/08/23 03:52:52;;;;;;;15.57;9.70;;;;;;;27.95;58.74;98098.84;4425480;32;20146;-80
2023/08/23 03:55:19;;;;;;;13.95;9.10;;;;;;;28.15;58.14;98101.88;4425411;32;20104;-80
2023/08/23 03:57:46;;;;;;;15.32;9.75;;;;;;;28.44;56.63;98103.87;4425602;32;20360;-80
2023/08/23 04:00:14;;;;;;;14.57;9.63;;;;;;;27.95;58.08;98109.44;4425343;32;20077;-80
2023/08/23 04:02:43;;;;;;;14.82;9.55;;;;;;;28.37;56.99;98103.75;4426018;32;20142;-80
2023/08/23 04:05:13;;;;;;;15.85;9.75;;;;;;;28.28;57.23;98109.28;4427669;32;20121;-80
2023/08/23 04:07:40;;;;;;;15.88;9.43;;;;;;;28.45;56.88;98101.03;4428060;32;20661;-80
2023/08/23 04:10:08;;;;;;;14.55;9.38;;;;;;;28.38;56.99;98107.22;4427345;32;20062;-80
2023/08/23 04:12:35;;;;;;;14.45;9.32;;;;;;;28.56;56.43;98109.59;4427479;32;20106;-80
2023/08/23 04:15:03;;;;;;;16.25;9.63;;;;;;;28.55;56.20;98110.59;4427511;32;20089;-80
2023/08/23 04:17:30;;;;;;;15.52;9.88;;;;;;;28.81;55.67;98106.53;4427415;32;20480;-80
2023/08/23 04:19:57;;;;;;;15.70;9.90;;;;;;;28.56;56.41;98098.97;4427779;32;20094;-80
2023/08/23 04:22:25;;;;;;;16.73;8.93;;;;;;;28.11;57.91;98101.41;4427371;32;20475;-80
2023/08/23 04:24:52;;;;;;;15.18;8.70;;;;;;;28.20;57.65;98104.84;4427755;32;20103;-80
2023/08/23 04:27:19;;;;;;;16.90;8.40;;;;;;;28.72;55.86;98105.00;4427415;32;20149;-80
2023/08/23 04:29:46;;;;;;;14.35;8.75;;;;;;;28.65;55.90;98101.38;4427504;32;20602;-80
2023/08/23 04:32:13;;;;;;;15.23;9.88;;;;;;;28.92;55.35;98102.66;4414177;32;20168;-80
2023/08/23 04:34:40;;;;;;;15.30;9.18;;;;;;;28.88;55.66;98106.69;4427906;32;20441;-79
2023/08/23 04:37:07;;;;;;;16.87;9.15;;;;;;;29.28;54.25;98109.97;4427648;32;20093;-79
2023/08/23 04:39:34;;;;;;;14.32;9.23;;;;;;;29.05;54.96;98104.72;4427989;32;20074;-80
2023/08/23 04:42:01;;;;;;;22.90;9.50;;;;;;;28.65;56.42;98100.56;4428026;32;20093;-80
2023/08/23 04:44:29;;;;;;;17.45;9.48;;;;;;;29.01;55.58;98098.09;4414366;32;20153;-80
2023/08/23 04:46:58;;;;;;;14.68;9.15;;;;;;;28.98;55.62;98099.28;4414625;32;20089;-80
2023/08/23 04:49:25;;;;;;;16.55;9.43;;;;;;;29.27;54.76;98108.31;4427936;32;20073;-79
2023/08/23 04:51:52;;;;;;;16.67;9.32;;;;;;;29.33;54.46;98103.06;4427533;32;20153;-79
2023/08/23 04:54:19;;;;;;;15.98;9.48;;;;;;;29.27;54.58;98105.66;4427746;32;20062;-80
2023/08/23 04:56:45;;;;;;;14.05;9.35;;;;;;;29.63;53.65;98105.75;4427839;32;20145;-80
2023/08/23 04:59:12;;;;;;;15.73;8.95;;;;;;;29.93;52.69;98099.38;4427865;32;20103;-79
2023/08/23 05:01:39;;;;;;;14.35;9.23;;;;;;;30.02;52.56;98099.28;4428024;32;20134;-80
2023/08/23 05:04:07;;;;;;;13.48;8.63;;;;;;;29.99;52.64;98104.94;4428335;32;20102;-80
2023/08/23 05:06:35;;;;;;;17.67;9.40;;;;;;;29.99;52.40;98102.28;4428363;32;20139;-80
2023/08/23 05:09:04;;;;;;;13.75;8.70;;;;;;;29.98;52.73;98103.31;4431015;32;20046;-80
2023/08/23 05:11:32;;;;;;;16.08;9.20;;;;;;;29.93;53.37;98106.53;4418827;32;20077;-79
2023/08/23 05:13:58;;;;;;;15.50;9.13;;;;;;;30.63;51.19;98113.03;4429129;32;20141;-79
2023/08/23 05:16:25;;;;;;;13.15;8.93;;;;;;;30.88;50.46;98113.47;4430023;32;20096;-79
2023/08/23 05:18:52;;;;;;;14.40;8.63;;;;;;;31.34;49.90;98121.81;4415862;32;20678;-79
2023/08/23 05:21:19;;;;;;;16.77;8.65;;;;;;;31.66;48.74;98115.00;4430092;32;20365;-79
2023/08/23 05:23:46;;;;;;;12.95;8.38;;;;;;;31.75;48.32;98116.53;4430388;32;20433;-80
2023/08/23 05:26:13;;;;;;;15.15;8.65;;;;;;;31.79;48.35;98116.94;4430042;32;20057;-80
2023/08/23 05:28:40;;;;;;;13.82;8.63;;;;;;;32.05;48.02;98122.41;4417623;32;20165;-80
2023/08/23 05:31:07;;;;;;;13.93;8.77;;;;;;;32.69;46.24;98121.13;4430233;32;20062;-80
2023/08/23 05:33:34;;;;;;;13.32;8.50;;;;;;;33.00;45.68;98124.03;4430367;32;20710;-80
2023/08/23 05:36:01;;;;;;;12.50;8.95;;;;;;;33.42;45.20;98129.12;4430109;32;20160;-80
2023/08/23 05:38:29;;;;;;;13.55;8.23;;;;;;;33.50;45.02;98128.91;4430499;32;20108;-79
2023/08/23 05:40:56;;;;;;;11.68;8.20;;;;;;;33.83;44.01;98123.47;4429066;32;20141;-80
2023/08/23 05:43:23;;;;;;;12.85;8.35;;;;;;;33.52;44.53;98132.19;4429613;32;20128;-80
2023/08/23 05:45:54;;;;;;;14.30;8.40;;;;;;;33.97;43.45;98130.41;4430571;32;20108;-79
2023/08/23 05:48:22;;;;;;;15.40;8.45;;;;;;;33.89;43.93;98128.78;4430314;32;20514;-80
2023/08/23 05:50:49;;;;;;;13.77;8.00;;;;;;;34.33;42.88;98126.31;4414927;32;20173;-80
2023/08/23 05:53:19;;;;;;;13.65;7.93;;;;;;;34.68;42.10;98127.56;4428578;32;20101;-79
2023/08/23 05:55:48;;;;;;;14.02;7.97;;;;;;;34.55;42.55;98129.50;4429377;32;20075;-82
2023/08/23 05:58:18;;;;;;;14.90;8.10;;;;;;;34.98;41.32;98125.06;4430405;32;20100;-81
2023/08/23 06:00:46;;;;;;;15.75;8.50;;;;;;;35.01;41.73;98134.53;4428146;32;20098;-81
2023/08/23 06:03:14;;;;;;;14.80;8.45;;;;;;;35.10;41.52;98135.09;4428303;32;20111;-80
2023/08/23 06:05:43;;;;;;;19.15;8.57;;;;;;;34.94;41.98;98125.72;4430669;32;20085;-81
2023/08/23 06:08:10;;;;;;;23.62;8.38;;;;;;;35.42;41.18;98130.47;4415195;32;20098;-81
2023/08/23 06:10:37;;;;;;;12.73;8.23;;;;;;;35.71;41.18;98139.63;4430602;32;20066;-80
2023/08/23 06:13:05;;;;;;;16.65;8.27;;;;;;;35.96;40.19;98135.03;4432431;32;20105;-81
2023/08/23 06:15:32;;;;;;;21.33;8.77;;;;;;;36.21;40.19;98134.91;4427735;32;20875;-81
2023/08/23 06:17:59;;;;;;;21.00;8.90;;;;;;;36.48;39.41;98138.06;4426350;32;20140;-81
2023/08/23 06:20:28;;;;;;;18.92;8.57;;;;;;;36.88;39.05;98138.28;4429264;32;20139;-80
2023/08/23 06:22:57;;;;;;;15.02;8.85;;;;;;;36.99;38.26;98137.47;4434720;32;20085;-81
2023/08/23 06:25:24;;;;;;;13.32;8.20;;;;;;;37.01;38.79;98137.25;4432324;32;20058;-82
2023/08/23 06:27:51;;;;;;;15.10;8.57;;;;;;;37.66;37.30;98153.28;4437204;32;20062;-82
2023/08/23 06:30:18;;;;;;;25.83;8.50;;;;;;;37.13;38.23;98148.03;4435921;32;20116;-81
2023/08/23 06:32:49;;;;;;;13.05;7.82;;;;;;;37.78;37.61;98147.91;4437642;32;20073;-82
2023/08/23 06:35:17;;;;;;;13.45;7.70;;;;;;;37.73;36.71;98145.06;4438612;32;20072;-81
2023/08/23 06:37:44;;;;;;;13.38;7.37;;;;;;;37.96;35.90;98145.00;4437047;32;20054;-82
2023/08/23 06:40:12;;;;;;;14.13;7.57;;;;;;;37.86;36.25;98139.47;4421079;32;20074;-80
2023/08/23 06:42:40;;;;;;;12.80;7.32;;;;;;;37.91;36.19;98151.13;4427855;32;20104;-80
2023/08/23 06:45:08;;;;;;;13.02;7.53;;;;;;;37.98;36.15;98150.19;4427017;32;20151;-80
2023/08/23 06:47:37;;;;;;;11.10;7.43;;;;;;;38.43;35.87;98144.88;4426199;32;20054;-80
2023/08/23 06:50:04;;;;;;;12.32;7.55;;;;;;;38.44;35.48;98157.28;4427248;32;20086;-80
2023/08/23 06:52:37;;;;;;;12.05;6.95;;;;;;;38.54;34.58;98162.84;4426969;32;20416;-80
2023/08/23 06:55:05;;;;;;;12.50;7.43;;;;;;;38.36;34.08;98160.38;4427387;32;20061;-80
2023/08/23 06:57:33;;;;;;;11.88;7.50;;;;;;;38.17;35.08;98160.50;4426175;32;20054;-80
2023/08/23 07:00:00;;;;;;;13.10;7.47;;;;;;;38.32;35.63;98159.22;4426541;32;20137;-80
2023/08/23 07:02:27;;;;;;;14.57;7.95;;;;;;;38.35;34.85;98164.13;4425623;32;20128;-80
2023/08/23 07:04:54;;;;;;;11.80;7.10;;;;;;;38.49;34.74;98171.66;4424806;32;20082;-80
2023/08/23 07:07:21;;;;;;;12.73;6.85;;;;;;;38.34;34.92;98171.37;4425540;32;20078;-80
2023/08/23 07:09:49;;;;;;;10.30;6.43;;;;;;;37.53;35.07;98173.16;4412803;32;20175;-80
2023/08/23 07:12:17;;;;;;;12.45;7.15;;;;;;;37.44;35.91;98177.28;4424906;32;20097;-80
2023/08/23 07:14:46;;;;;;;13.05;6.95;;;;;;;37.45;35.36;98178.13;4424868;32;20094;-80
2023/08/23 07:17:13;;;;;;;11.15;7.25;;;;;;;37.67;34.67;98181.84;4424603;32;20569;-80
2023/08/23 07:19:40;;;;;;;11.98;7.15;;;;;;;37.84;35.09;98171.97;4424610;32;20134;-80
2023/08/23 07:22:07;;;;;;;14.23;7.10;;;;;;;37.62;35.55;98179.00;4424496;32;20447;-79
2023/08/23 07:24:34;;;;;;;11.55;6.90;;;;;;;37.68;34.65;98179.97;4424448;32;20105;-80
2023/08/23 07:27:01;;;;;;;12.55;6.95;;;;;;;37.29;35.33;98182.31;4424497;32;20100;-80
2023/08/23 07:29:29;;;;;;;11.98;7.28;;;;;;;37.19;35.60;98176.66;4424508;32;20094;-80
2023/08/23 07:31:57;;;;;;;11.98;6.82;;;;;;;37.02;35.79;98173.84;4424150;32;20089;-79
2023/08/23 07:34:25;;;;;;;10.95;7.12;;;;;;;37.23;36.05;98172.47;4424391;32;20594;-80
2023/08/23 07:36:52;;;;;;;11.95;6.70;;;;;;;37.60;35.74;98167.66;4410521;32;20077;-80
2023/08/23 07:39:19;;;;;;;13.93;7.20;;;;;;;37.39;35.08;98169.09;4425726;32;20468;-79
2023/08/23 07:41:46;;;;;;;13.10;7.15;;;;;;;37.76;35.25;98158.09;4426447;32;20177;-80
2023/08/23 07:44:13;;;;;;;14.05;6.78;;;;;;;37.63;34.06;98164.50;4426365;32;20099;-80
2023/08/23 07:46:40;;;;;;;11.20;6.95;;;;;;;37.14;35.00;98168.50;4425871;32;20082;-81
2023/08/23 07:49:07;;;;;;;12.10;7.25;;;;;;;37.17;35.09;98162.63;4426247;32;20109;-80
2023/08/23 07:51:34;;;;;;;12.23;6.82;;;;;;;36.65;36.07;98165.09;4426286;32;20085;-80
2023/08/23 07:54:03;;;;;;;13.55;7.07;;;;;;;37.00;35.29;98170.56;4425845;32;20090;-80
2023/08/23 07:56:30;;;;;;;11.82;6.70;;;;;;;37.39;35.15;98176.34;4426114;32;20073;-80
2023/08/23 07:58:57;;;;;;;10.95;6.80;;;;;;;37.36;35.10;98177.66;4412429;32;20136;-80
2023/08/23 08:01:24;;;;;;;11.73;6.87;;;;;;;37.71;34.81;98176.78;4425755;32;20101;-80
2023/08/23 08:03:51;;;;;;;11.38;7.25;;;;;;;37.57;35.66;98168.97;4426069;32;20132;-80
2023/08/23 08:06:18;;;;;;;14.75;7.68;;;;;;;37.83;36.00;98175.72;4426969;32;20058;-80
2023/08/23 08:08:45;;;;;;;12.07;6.93;;;;;;;38.05;35.07;98175.09;4417848;32;20125;-80
2023/08/23 08:11:14;;;;;;;14.55;7.53;;;;;;;38.15;35.42;98180.69;4412851;32;20106;-80
2023/08/23 08:13:41;;;;;;;13.65;7.45;;;;;;;39.01;34.26;98182.28;4425681;32;20585;-80
2023/08/23 08:16:09;;;;;;;13.07;7.40;;;;;;;38.01;34.76;98185.53;4425876;32;20539;-80
2023/08/23 08:18:37;;;;;;;13.88;7.62;;;;;;;38.74;34.07;98190.22;4426088;32;20097;-80
2023/08/23 08:21:04;;;;;;;11.73;7.87;;;;;;;38.74;35.16;98192.91;4425691;32;20089;-80
2023/08/23 08:23:32;;;;;;;13.27;7.82;;;;;;;39.12;33.57;98185.19;4412201;32;20164;-81
2023/08/23 08:25:59;;;;;;;12.73;7.82;;;;;;;39.46;33.08;98189.50;4426116;32;20157;-81
2023/08/23 08:28:26;;;;;;;12.18;8.07;;;;;;;39.17;33.17;98183.41;4425641;32;20433;-81
2023/08/23 08:30:53;;;;;;;12.88;7.80;;;;;;;39.38;33.69;98189.91;4426053;32;20112;-80
2023/08/23 08:33:20;;;;;;;12.45;7.68;;;;;;;39.04;33.59;98184.50;4425997;32;20086;-80
2023/08/23 08:35:47;;;;;;;13.15;7.75;;;;;;;39.53;33.07;98195.53;4425550;32;20145;-80
2023/08/23 08:38:14;;;;;;;12.30;7.45;;;;;;;39.11;34.50;98203.25;4412111;32;20125;-80
2023/08/23 08:40:41;;;;;;;11.82;7.53;;;;;;;38.99;34.46;98200.59;4425616;32;20105;-80
2023/08/23 08:43:08;;;;;;;11.57;7.37;;;;;;;38.23;35.24;98206.47;4425956;32;20092;-80
2023/08/23 08:45:37;;;;;;;13.00;7.40;;;;;;;37.50;35.82;98197.06;4427438;32;20090;-80
2023/08/23 08:48:05;;;;;;;13.00;7.80;;;;;;;38.08;35.51;98205.09;4427082;32;20457;-80
2023/08/23 08:50:33;;;;;;;14.05;8.00;;;;;;;38.36;34.55;98206.19;4426836;32;20150;-80
2023/08/23 08:53:00;;;;;;;16.30;7.95;;;;;;;38.19;35.82;98204.22;4426285;32;20100;-80
2023/08/23 08:55:29;;;;;;;14.18;7.53;;;;;;;38.33;34.89;98202.09;4425717;32;20417;-80
2023/08/23 08:57:56;;;;;;;11.73;7.82;;;;;;;37.78;36.54;98212.53;4426522;32;20062;-83
2023/08/23 09:00:25;;;;;;;13.30;7.60;;;;;;;38.56;35.21;98214.66;4412857;32;20181;-80
2023/08/23 09:02:57;;;;;;;10.93;6.87;;;;;;;38.31;35.60;98217.69;4425344;32;20431;-80
2023/08/23 09:05:25;;;;;;;11.85;7.37;;;;;;;37.38;36.39;98209.69;4425676;32;20082;-80
2023/08/23 09:07:56;;;;;;;12.80;7.72;;;;;;;37.27;37.30;98217.50;4425831;32;20120;-80
2023/08/23 09:10:24;;;;;;;12.40;8.05;;;;;;;37.41;37.37;98203.84;4411826;32;20804;-80
2023/08/23 09:12:52;;;;;;;15.80;7.82;;;;;;;38.17;36.76;98205.50;4425710;32;20156;-80
2023/08/23 09:15:23;;;;;;;11.82;7.18;;;;;;;38.17;36.60;98211.72;4425601;32;20102;-80
2023/08/23 09:17:54;;;;;;;12.70;7.10;;;;;;;38.46;34.99;98206.38;4425512;32;20098;-80
2023/08/23 09:20:23;;;;;;;11.63;7.22;;;;;;;38.00;35.93;98210.03;4425825;32;20085;-80
2023/08/23 09:22:53;;;;;;;10.77;7.20;;;;;;;37.21;38.27;98204.97;4426022;32;20095;-80
2023/08/23 09:25:21;;;;;;;13.68;7.50;;;;;;;37.28;36.90;98200.28;4425974;32;20082;-80
2023/08/23 09:27:48;;;;;;;12.98;7.37;;;;;;;37.41;37.08;98198.44;4426158;32;20163;-80
2023/08/23 09:30:15;;;;;;;15.40;8.35;;;;;;;38.39;36.93;98192.22;4425761;32;20115;-80
2023/08/23 09:32:42;;;;;;;11.73;7.50;;;;;;;38.01;37.27;98193.63;4425513;32;20102;-80
2023/08/23 09:35:11;;;;;;;13.25;7.87;;;;;;;38.12;36.81;98191.94;4425629;32;20082;-80
2023/08/23 09:37:45;;;;;;;12.45;7.68;;;;;;;37.30;37.80;98194.72;4425285;32;20098;-80
2023/08/23 09:40:19;;;;;;;11.10;7.57;;;;;;;37.39;38.69;98195.19;4411884;32;20456;-80
2023/08/23 09:42:46;;;;;;;29.75;8.25;;;;;;;36.86;39.12;98185.28;4425729;32;20269;-79
2023/08/23 09:45:17;;;;;;;14.60;8.65;;;;;;;36.59;39.62;98190.22;4425227;32;20124;-79
2023/08/23 09:47:50;;;;;;;13.52;8.88;;;;;;;35.90;41.45;98209.22;4412138;32;20106;-79
2023/08/23 09:50:19;;;;;;;14.05;8.65;;;;;;;35.72;41.79;98213.72;4425857;32;20141;-79
2023/08/23 09:52:51;;;;;;;16.73;8.65;;;;;;;34.70;43.28;98210.41;4425506;32;20141;-79
2023/08/23 09:55:18;;;;;;;14.30;8.85;;;;;;;35.55;41.54;98219.69;4412463;32;20148;-79
2023/08/23 09:57:45;;;;;;;13.95;9.48;;;;;;;35.03;43.26;98219.06;4413364;32;20427;-80
2023/08/23 10:00:16;;;;;;;14.38;9.73;;;;;;;34.57;44.55;98222.03;4425522;32;20112;-79
2023/08/23 10:02:45;;;;;;;14.35;9.40;;;;;;;34.28;44.60;98231.41;4425998;32;20490;-79
2023/08/23 10:05:12;;;;;;;13.32;9.30;;;;;;;34.31;45.03;98222.12;4426255;32;20070;-79
2023/08/23 10:07:42;;;;;;;13.77;9.18;;;;;;;33.69;46.38;98223.50;4413419;32;20098;-79
2023/08/23 10:10:10;;;;;;;17.17;9.30;;;;;;;34.39;44.19;98228.09;4429282;32;20106;-80
2023/08/23 10:12:46;;;;;;;17.58;9.43;;;;;;;34.36;45.26;98222.31;4427591;32;20090;-79
2023/08/23 10:15:16;;;;;;;14.23;9.40;;;;;;;35.36;43.44;98228.69;4399239;32;20176;-79
2023/08/23 10:17:45;;;;;;;15.38;9.32;;;;;;;34.77;44.28;98222.75;4415022;32;20083;-78
2023/08/23 10:20:13;;;;;;;13.68;9.40;;;;;;;34.44;44.28;98224.75;4434680;32;20062;-78
2023/08/23 10:22:41;;;;;;;13.30;9.15;;;;;;;34.65;44.42;98223.63;4417091;32;20072;-78
2023/08/23 10:25:16;;;;;;;16.77;9.90;;;;;;;33.70;46.37;98225.97;4436211;32;20086;-78
2023/08/23 10:27:45;;;;;;;14.35;9.68;;;;;;;33.28;46.88;98219.19;4434912;32;20448;-78
2023/08/23 10:30:24;;;;;;;19.83;10.30;;;;;;;33.45;46.78;98219.66;4434764;32;20101;-78
2023/08/23 10:32:52;;;;;;;16.60;9.57;;;;;;;33.14;46.99;98215.72;4437683;32;20101;-78
2023/08/23 10:35:32;;;;;;;18.27;9.48;;;;;;;33.45;46.45;98220.47;4424590;32;20107;-78
2023/08/23 10:38:00;;;;;;;17.25;10.15;;;;;;;33.17;47.28;98214.47;4435967;32;20069;-78
2023/08/23 10:40:31;;;;;;;17.05;9.80;;;;;;;33.21;47.38;98215.72;4438480;32;20168;-78
2023/08/23 10:43:01;;;;;;;19.27;10.55;;;;;;;32.91;48.06;98220.62;4425343;32;20105;-77
2023/08/23 10:45:28;;;;;;;16.77;9.88;;;;;;;32.87;48.47;98225.56;4412425;32;20061;-78
2023/08/23 10:47:55;;;;;;;14.80;9.77;;;;;;;33.28;48.17;98227.22;4435533;32;20061;-77
2023/08/23 10:50:23;;;;;;;16.92;10.23;;;;;;;33.15;48.21;98237.94;4420259;32;20105;-78
2023/08/23 10:52:50;;;;;;;16.20;9.52;;;;;;;32.41;49.59;98236.91;4418710;32;20100;-78
2023/08/23 10:55:24;;;;;;;13.23;9.30;;;;;;;31.67;51.20;98252.69;4433711;32;20094;-77
2023/08/23 10:57:51;;;;;;;17.02;9.45;;;;;;;31.88;50.97;98247.31;4432575;32;20138;-78
2023/08/23 11:00:18;;;;;;;13.30;9.45;;;;;;;32.07;50.35;98250.28;4419784;32;20117;-78
2023/08/23 11:02:45;;;;;;;17.30;9.07;;;;;;;31.95;50.20;98239.34;4433380;32;20097;-78
2023/08/23 11:05:12;;;;;;;16.62;9.35;;;;;;;32.11;49.78;98251.53;4431900;32;20074;-78
2023/08/23 11:07:39;;;;;;;15.50;9.45;;;;;;;31.58;51.12;98245.84;4418536;32;20069;-78
2023/08/23 11:10:08;;;;;;;18.12;8.50;;;;;;;31.83;50.02;98235.59;4430184;32;20145;-78
2023/08/23 11:12:36;;;;;;;15.55;8.75;;;;;;;31.81;50.16;98237.66;4428034;32;20089;-78
2023/08/23 11:15:04;;;;;;;13.73;8.63;;;;;;;29.65;57.24;98221.53;4431130;32;20520;-78
2023/08/23 11:17:31;;;;;;;16.67;9.18;;;;;;;30.23;55.35;98230.56;4420346;32;269188;-78
2023/08/23 11:19:58;;;;;;;16.85;9.23;;;;;;;30.86;54.21;98228.22;4426432;32;20094;-78
2023/08/23 11:22:25;;;;;;;15.70;8.70;;;;;;;31.85;51.11;98217.53;4424532;32;20123;-78
2023/08/23 11:24:52;;;;;;;15.32;8.70;;;;;;;31.85;51.17;98228.22;4424279;32;20498;-78
2023/08/23 11:27:19;;;;;;;15.02;8.88;;;;;;;32.17;50.12;98222.22;4424411;32;20500;-79